Pierre, South Dakota
Current Conditions -  °F | °C
As of 4:53 PM on Tuesday 21 Oct 2014 (Local Time) from KPIR Reporting Station
Clear Clear  
Wind Chill: 82°   Ceiling: Unl
Heat Index: 82°   Visibility: 10mi
Dew Point: 41°   Wind: 25mph
Humidity: 23%   Direction: 170°S
Pressure: 29.75"   Gusts: 32mph
Location:  44.37°N, 100.35°W
Report Text: KPIR 212153Z AUTO 17022G28KT 10SM CLR 28/05 A2975 RMK AO2 PK WND 18033/2055 SLP064 T02780050
Loading
Personal Weather Stations






























Interactive Weather Map New forecast layout! Learn more

10-Day Weather Forecast

Advertisements
Track Severe Weather on mobile